createdAt,value
2023-04-11T00:00:25.397Z,10.50
2023-04-11T00:02:54.896Z,8.85
2023-04-11T00:05:22.565Z,10.02
2023-04-11T00:07:50.751Z,7.80
2023-04-11T00:10:18.472Z,8.00
2023-04-11T00:12:46.344Z,10.10
2023-04-11T00:15:16.188Z,8.63
2023-04-11T00:20:14.082Z,9.03
2023-04-11T00:22:42.098Z,7.82
2023-04-11T00:25:09.917Z,9.75
2023-04-11T00:27:37.379Z,7.18
2023-04-11T00:30:07.968Z,8.18
2023-04-11T00:32:35.809Z,8.02
2023-04-11T00:35:03.385Z,7.70
2023-04-11T00:37:35.982Z,8.30
2023-04-11T00:40:05.853Z,7.40
2023-04-11T00:42:33.757Z,8.05
2023-04-11T00:45:01.257Z,7.10
2023-04-11T00:47:29.040Z,7.20
2023-04-11T00:49:56.542Z,11.70
2023-04-11T00:52:24.301Z,9.15
2023-04-11T00:54:52.057Z,8.27
2023-04-11T00:57:19.519Z,10.27
2023-04-11T00:59:51.130Z,8.23
2023-04-11T01:02:19.043Z,9.18
2023-04-11T01:04:46.614Z,8.30
2023-04-11T01:07:14.108Z,7.55
2023-04-11T01:09:41.845Z,8.23
2023-04-11T01:12:09.410Z,9.70
2023-04-11T01:14:36.872Z,9.98
2023-04-11T01:17:04.704Z,11.12
2023-04-11T01:19:32.575Z,12.30
2023-04-11T01:22:01.085Z,7.85
2023-04-11T01:24:28.957Z,9.70
2023-04-11T01:26:57.165Z,8.32
2023-04-11T01:29:24.800Z,7.40
2023-04-11T01:31:52.568Z,8.50
2023-04-11T01:34:20.047Z,7.45
2023-04-11T01:36:48.461Z,9.88
2023-04-11T01:39:16.154Z,8.13
2023-04-11T01:41:43.672Z,11.52
2023-04-11T01:44:11.192Z,6.35
2023-04-11T01:46:38.959Z,7.68
2023-04-11T01:49:06.484Z,8.23
2023-04-11T01:51:34.065Z,6.80
2023-04-11T01:54:01.848Z,8.43
2023-04-11T01:56:29.309Z,6.62
2023-04-11T01:58:59.167Z,9.45
2023-04-11T02:01:27.897Z,7.10
2023-04-11T02:03:55.739Z,8.48
2023-04-11T02:06:23.238Z,7.80
2023-04-11T02:08:51.471Z,8.40
2023-04-11T02:11:19.204Z,8.70
2023-04-11T02:13:49.843Z,6.03
2023-04-11T02:16:18.089Z,7.47
2023-04-11T02:18:46.409Z,6.25
2023-04-11T02:21:13.994Z,7.07
2023-04-11T02:23:41.423Z,6.80
2023-04-11T02:26:09.251Z,8.52
2023-04-11T02:28:36.836Z,7.57
2023-04-11T02:31:05.911Z,6.85
2023-04-11T02:33:33.690Z,8.85
2023-04-11T02:36:01.180Z,7.20
2023-04-11T02:38:28.654Z,6.57
2023-04-11T02:40:56.342Z,7.57
2023-04-11T02:43:23.769Z,8.13
2023-04-11T02:45:54.289Z,6.78
2023-04-11T02:48:27.383Z,7.50
2023-04-11T02:50:54.826Z,6.45
2023-04-11T02:53:24.011Z,6.62
2023-04-11T02:55:51.794Z,6.78
2023-04-11T02:58:20.176Z,6.85
2023-04-11T03:00:49.277Z,7.37
2023-04-11T03:03:17.289Z,5.93
2023-04-11T03:05:45.239Z,7.50
2023-04-11T03:08:13.429Z,6.55
2023-04-11T03:10:41.858Z,7.97
2023-04-11T03:13:10.016Z,6.80
2023-04-11T03:15:37.627Z,7.15
2023-04-11T03:18:05.991Z,6.55
2023-04-11T03:20:33.735Z,6.72
2023-04-11T03:23:01.315Z,7.65
2023-04-11T03:25:29.674Z,7.60
2023-04-11T03:27:57.672Z,6.87
2023-04-11T03:30:25.243Z,7.07
2023-04-11T03:32:53.174Z,6.97
2023-04-11T03:35:20.913Z,6.50
2023-04-11T03:37:49.283Z,6.07
2023-04-11T03:40:18.702Z,6.45
2023-04-11T03:42:46.751Z,5.90
2023-04-11T03:45:14.771Z,6.68
2023-04-11T03:47:42.807Z,6.45
2023-04-11T03:50:11.567Z,8.15
2023-04-11T03:52:39.814Z,7.47
2023-04-11T03:55:09.756Z,6.35
2023-04-11T03:57:37.271Z,6.25
2023-04-11T04:00:06.465Z,7.53
2023-04-11T04:02:42.528Z,6.62
2023-04-11T04:05:11.564Z,6.12
2023-04-11T04:07:39.716Z,5.72
2023-04-11T04:10:08.130Z,7.72
2023-04-11T04:12:35.980Z,8.98
2023-04-11T04:15:04.287Z,7.25
2023-04-11T04:17:31.890Z,6.53
2023-04-11T04:20:05.927Z,7.37
2023-04-11T04:22:36.023Z,6.03
2023-04-11T04:25:04.116Z,6.00
2023-04-11T04:27:32.401Z,6.00
2023-04-11T04:30:04.200Z,6.90
2023-04-11T04:32:33.047Z,5.68
2023-04-11T04:35:01.631Z,6.37
2023-04-11T04:37:29.376Z,5.80
2023-04-11T04:40:02.099Z,6.28
2023-04-11T04:42:31.106Z,7.75
2023-04-11T04:45:00.855Z,6.10
2023-04-11T04:47:33.633Z,6.78
2023-04-11T04:50:01.451Z,5.62
2023-04-11T04:52:29.345Z,5.85
2023-04-11T04:55:01.274Z,8.02
2023-04-11T04:57:29.541Z,5.72
2023-04-11T04:59:57.249Z,6.90
2023-04-11T05:02:27.804Z,5.68
2023-04-11T05:04:58.135Z,7.15
2023-04-11T05:07:26.530Z,5.50
2023-04-11T05:09:54.883Z,7.70
2023-04-11T05:12:27.016Z,5.50
2023-04-11T05:14:56.760Z,5.65
2023-04-11T05:17:26.257Z,5.82
2023-04-11T05:19:54.399Z,6.50
2023-04-11T05:22:21.947Z,6.40
2023-04-11T05:24:50.192Z,6.53
2023-04-11T05:27:18.663Z,5.93
2023-04-11T05:29:46.581Z,6.25
2023-04-11T05:32:14.775Z,5.60
2023-04-11T05:34:55.185Z,4.97
2023-04-11T05:37:25.193Z,6.43
2023-04-11T05:39:53.099Z,6.78
2023-04-11T05:42:22.031Z,6.10
2023-04-11T05:44:49.750Z,6.32
2023-04-11T05:47:17.220Z,5.68
2023-04-11T05:49:44.705Z,7.35
2023-04-11T05:52:12.451Z,6.70
2023-04-11T05:54:39.881Z,6.15
2023-04-11T05:57:07.745Z,5.45
2023-04-11T05:59:36.113Z,7.18
2023-04-11T06:02:03.983Z,5.03
2023-04-11T06:04:32.066Z,6.07
2023-04-11T06:06:59.707Z,5.32
2023-04-11T06:09:27.512Z,6.25
2023-04-11T06:11:55.255Z,6.15
2023-04-11T06:14:22.764Z,5.53
2023-04-11T06:16:50.272Z,6.72
2023-04-11T06:19:18.095Z,5.35
2023-04-11T06:21:45.800Z,7.70
2023-04-11T06:24:13.188Z,6.28
2023-04-11T06:26:41.251Z,6.35
2023-04-11T06:29:08.700Z,4.60
2023-04-11T06:31:36.389Z,6.03
2023-04-11T06:34:04.142Z,5.43
2023-04-11T06:36:32.641Z,6.05
2023-04-11T06:39:00.339Z,5.78
2023-04-11T06:41:28.094Z,5.10
2023-04-11T06:43:55.909Z,6.40
2023-04-11T06:46:23.610Z,5.22
2023-04-11T06:48:51.441Z,5.75
2023-04-11T06:51:18.983Z,4.93
2023-04-11T06:53:46.584Z,5.40
2023-04-11T06:56:14.344Z,5.72
2023-04-11T06:58:41.862Z,6.05
2023-04-11T07:01:09.494Z,6.87
2023-04-11T07:03:38.137Z,5.35
2023-04-11T07:06:07.377Z,5.82
2023-04-11T07:08:34.828Z,7.28
2023-04-11T07:11:03.177Z,11.12
2023-04-11T07:13:30.674Z,21.23
2023-04-11T07:15:58.235Z,18.25
2023-04-11T07:18:28.764Z,9.68
2023-04-11T07:20:56.272Z,9.73
2023-04-11T07:23:24.091Z,10.45
2023-04-11T07:25:51.798Z,9.38
2023-04-11T07:28:19.252Z,13.88
2023-04-11T07:30:46.879Z,14.10
2023-04-11T07:33:14.573Z,10.48
2023-04-11T07:35:42.013Z,9.45
2023-04-11T07:38:10.639Z,11.88
2023-04-11T07:40:40.450Z,9.80
2023-04-11T07:43:07.978Z,16.08
2023-04-11T07:45:36.530Z,14.55
2023-04-11T07:48:04.485Z,10.77
2023-04-11T07:50:31.991Z,13.68
2023-04-11T07:52:59.435Z,17.75
2023-04-11T07:55:27.200Z,15.63
2023-04-11T07:57:54.904Z,22.08
2023-04-11T08:00:22.917Z,14.48
2023-04-11T08:02:51.947Z,15.43
2023-04-11T08:05:19.698Z,12.48
2023-04-11T08:07:47.311Z,15.18
2023-04-11T08:10:15.169Z,12.15
2023-04-11T08:12:42.603Z,19.60
2023-04-11T08:15:10.733Z,12.85
2023-04-11T08:17:39.029Z,9.70
2023-04-11T08:20:09.344Z,12.73
2023-04-11T08:22:36.950Z,12.32
2023-04-11T08:25:06.018Z,11.12
2023-04-11T08:27:33.503Z,14.85
2023-04-11T08:30:01.545Z,16.77
2023-04-11T08:32:29.300Z,11.68
2023-04-11T08:34:56.724Z,14.05
2023-04-11T08:37:24.164Z,9.38
2023-04-11T08:39:51.860Z,12.95
2023-04-11T08:42:29.693Z,8.57
2023-04-11T08:44:59.088Z,15.30
2023-04-11T08:47:26.770Z,16.62
2023-04-11T08:49:54.281Z,12.23
2023-04-11T08:52:24.143Z,13.95
2023-04-11T08:54:55.130Z,11.80
2023-04-11T08:57:35.079Z,11.00
2023-04-11T09:00:22.814Z,11.82
2023-04-11T09:02:56.866Z,13.75
2023-04-11T09:05:31.852Z,13.73
2023-04-11T09:08:03.397Z,12.52
2023-04-11T09:10:30.847Z,11.57
2023-04-11T09:12:58.416Z,13.60
2023-04-11T09:15:30.127Z,14.20
2023-04-11T09:18:00.529Z,13.27
2023-04-11T09:20:32.265Z,15.65
2023-04-11T09:22:59.812Z,15.15
2023-04-11T09:25:27.560Z,12.65
2023-04-11T09:28:09.051Z,12.48
2023-04-11T09:30:37.097Z,10.20
2023-04-11T09:33:23.848Z,10.80
2023-04-11T09:35:52.912Z,9.73
2023-04-11T09:38:34.469Z,14.15
2023-04-11T09:41:03.572Z,11.45
2023-04-11T09:43:51.482Z,11.20
2023-04-11T09:46:20.797Z,17.20
2023-04-11T09:48:49.241Z,13.35
2023-04-11T09:51:28.112Z,15.73
2023-04-11T09:54:03.595Z,15.13
2023-04-11T09:56:31.408Z,13.27
2023-04-11T09:58:59.978Z,13.62
2023-04-11T10:01:28.191Z,11.48
2023-04-11T10:03:56.745Z,13.98
2023-04-11T10:06:38.688Z,10.85
2023-04-11T10:09:11.191Z,14.30
2023-04-11T10:11:43.107Z,15.35
2023-04-11T10:14:39.021Z,10.95
2023-04-11T10:17:22.152Z,15.80
2023-04-11T10:19:56.479Z,12.88
2023-04-11T10:22:46.458Z,12.23
2023-04-11T10:25:21.127Z,9.88
2023-04-11T10:28:00.826Z,10.88
2023-04-11T10:30:41.075Z,10.90
2023-04-11T10:33:11.986Z,11.50
2023-04-11T10:35:59.457Z,8.45
2023-04-11T10:38:49.209Z,12.93
2023-04-11T10:41:27.666Z,10.00
2023-04-11T10:44:14.764Z,12.77
2023-04-11T10:46:50.780Z,10.60
2023-04-11T10:49:37.749Z,9.88
2023-04-11T10:52:22.432Z,10.05
2023-04-11T10:54:51.269Z,14.05
2023-04-11T10:57:19.103Z,12.10
2023-04-11T10:59:49.416Z,10.85
2023-04-11T11:02:17.044Z,9.77
2023-04-11T11:04:45.004Z,10.88
2023-04-11T11:07:13.351Z,10.07
2023-04-11T11:09:40.827Z,11.98
2023-04-11T11:12:15.713Z,10.45
2023-04-11T11:14:44.840Z,11.55
2023-04-11T11:17:13.309Z,9.52
2023-04-11T11:19:47.577Z,11.23
2023-04-11T11:22:16.059Z,11.35
2023-04-11T11:24:43.502Z,14.18
2023-04-11T11:27:22.908Z,9.27
2023-04-11T11:29:51.135Z,9.40
2023-04-11T11:32:22.817Z,10.00
2023-04-11T11:34:53.061Z,8.45
2023-04-11T11:37:21.589Z,11.50
2023-04-11T11:39:49.213Z,9.88
2023-04-11T11:42:16.623Z,9.13
2023-04-11T11:44:44.418Z,11.32
2023-04-11T11:47:15.112Z,10.50
2023-04-11T11:50:02.886Z,9.65
2023-04-11T11:52:34.413Z,12.25
2023-04-11T11:55:08.813Z,8.57
2023-04-11T11:57:38.620Z,9.20
2023-04-11T12:00:09.265Z,9.27
2023-04-11T12:02:38.268Z,8.77
2023-04-11T12:05:06.733Z,8.43
2023-04-11T12:07:36.186Z,10.88
2023-04-11T12:10:09.096Z,8.65
2023-04-11T12:12:37.778Z,9.07
2023-04-11T12:15:11.784Z,7.55
2023-04-11T12:17:39.517Z,8.75
2023-04-11T12:20:08.251Z,8.55
2023-04-11T12:22:36.124Z,8.23
2023-04-11T12:25:05.782Z,9.65
2023-04-11T12:27:34.940Z,10.00
2023-04-11T12:30:02.620Z,8.85
2023-04-11T12:32:33.850Z,9.25
2023-04-11T12:35:02.794Z,10.80
2023-04-11T12:37:31.111Z,9.00
2023-04-11T12:39:58.683Z,9.05
2023-04-11T12:42:27.398Z,11.70
2023-04-11T12:44:55.106Z,9.13
2023-04-11T12:47:22.644Z,8.45
2023-04-11T12:49:50.738Z,8.98
2023-04-11T12:52:18.207Z,8.40
2023-04-11T12:54:46.126Z,10.50
2023-04-11T12:57:13.813Z,8.82
2023-04-11T12:59:41.432Z,10.68
2023-04-11T13:02:09.315Z,8.95
2023-04-11T13:04:37.221Z,9.38
2023-04-11T13:07:04.830Z,9.52
2023-04-11T13:09:33.964Z,8.88
2023-04-11T13:12:01.940Z,10.80
2023-04-11T13:14:29.543Z,15.80
2023-04-11T13:16:57.055Z,10.05
2023-04-11T13:19:24.966Z,11.70
2023-04-11T13:21:52.439Z,9.48
2023-04-11T13:24:19.909Z,10.90
2023-04-11T13:26:47.789Z,12.63
2023-04-11T13:29:15.315Z,13.35
2023-04-11T13:31:42.764Z,12.73
2023-04-11T13:34:10.872Z,9.27
2023-04-11T13:36:38.385Z,10.27
2023-04-11T13:39:06.276Z,11.40
2023-04-11T13:41:34.201Z,10.57
2023-04-11T13:44:01.728Z,9.55
2023-04-11T13:46:29.214Z,11.35
2023-04-11T13:48:57.256Z,11.88
2023-04-11T13:51:24.774Z,9.57
2023-04-11T13:53:52.188Z,8.18
2023-04-11T13:56:20.642Z,11.27
2023-04-11T13:58:48.074Z,9.95
2023-04-11T14:01:15.572Z,10.13
2023-04-11T14:03:44.683Z,10.05
2023-04-11T14:06:12.293Z,9.00
2023-04-11T14:08:39.823Z,12.85
2023-04-11T14:11:07.702Z,11.38
2023-04-11T14:13:35.143Z,10.90
2023-04-11T14:16:09.024Z,12.20
2023-04-11T14:18:37.272Z,9.98
2023-04-11T14:21:08.314Z,12.18
2023-04-11T14:23:36.837Z,9.75
2023-04-11T14:26:05.340Z,12.15
2023-04-11T14:28:32.809Z,10.55
2023-04-11T14:31:00.469Z,8.98
2023-04-11T14:33:28.230Z,11.05
2023-04-11T14:35:55.982Z,12.43
2023-04-11T14:38:23.421Z,9.77
2023-04-11T14:40:51.377Z,8.90
2023-04-11T14:43:19.507Z,11.27
2023-04-11T14:45:47.665Z,11.38
2023-04-11T14:48:16.017Z,10.82
2023-04-11T14:50:43.455Z,10.65
2023-04-11T14:53:11.161Z,9.60
2023-04-11T14:55:39.796Z,10.35
2023-04-11T14:58:07.354Z,12.63
2023-04-11T15:00:35.301Z,10.27
2023-04-11T15:03:03.408Z,13.05
2023-04-11T15:05:30.944Z,11.85
2023-04-11T15:07:58.432Z,11.50
2023-04-11T15:10:26.504Z,14.90
2023-04-11T15:12:53.939Z,15.27
2023-04-11T15:15:21.392Z,11.43
2023-04-11T15:17:49.905Z,11.05
2023-04-11T15:20:17.460Z,10.77
2023-04-11T15:22:45.563Z,12.45
2023-04-11T15:25:16.788Z,9.15
2023-04-11T15:27:44.246Z,12.07
2023-04-11T15:30:12.165Z,11.65
2023-04-11T15:32:42.628Z,10.98
2023-04-11T15:35:10.324Z,13.00
2023-04-11T15:37:37.743Z,10.98
2023-04-11T15:40:06.406Z,12.98
2023-04-11T15:42:35.598Z,14.98
2023-04-11T15:45:03.689Z,12.53
2023-04-11T15:47:31.570Z,20.42
2023-04-11T15:50:01.996Z,10.48
2023-04-11T15:52:29.518Z,11.35
2023-04-11T15:54:57.388Z,12.15
2023-04-11T15:57:26.214Z,8.90
2023-04-11T15:59:53.666Z,9.32
2023-04-11T16:02:21.598Z,7.95
2023-04-11T16:04:52.869Z,9.85
2023-04-11T16:07:25.011Z,10.15
2023-04-11T16:09:52.730Z,10.13
2023-04-11T16:12:20.275Z,10.88
2023-04-11T16:14:47.720Z,11.88
2023-04-11T16:17:15.675Z,8.65
2023-04-11T16:19:43.162Z,7.85
2023-04-11T16:22:10.843Z,9.32
2023-04-11T16:24:38.732Z,8.85
2023-04-11T16:27:06.210Z,7.85
2023-04-11T16:29:33.692Z,11.95
2023-04-11T16:32:01.492Z,11.15
2023-04-11T16:34:28.919Z,6.93
2023-04-11T16:36:56.771Z,8.65
2023-04-11T16:39:25.522Z,11.25
2023-04-11T16:41:54.972Z,8.27
2023-04-11T16:44:25.494Z,9.23
2023-04-11T16:46:53.569Z,10.63
2023-04-11T16:49:21.242Z,8.43
2023-04-11T16:51:48.806Z,8.68
2023-04-11T16:54:17.096Z,8.95
2023-04-11T16:56:44.622Z,8.95
2023-04-11T16:59:12.370Z,9.35
2023-04-11T17:01:41.684Z,9.93
2023-04-11T17:04:09.444Z,7.93
2023-04-11T17:06:37.164Z,7.68
2023-04-11T17:09:07.869Z,7.70
2023-04-11T17:11:37.808Z,9.10
2023-04-11T17:14:05.688Z,6.65
2023-04-11T17:16:33.169Z,7.90
2023-04-11T17:19:00.853Z,7.07
2023-04-11T17:21:28.567Z,8.27
2023-04-11T17:23:56.011Z,6.97
2023-04-11T17:26:23.624Z,7.25
2023-04-11T17:28:51.856Z,7.43
2023-04-11T17:31:19.742Z,9.88
2023-04-11T17:33:47.274Z,6.20
2023-04-11T17:36:15.035Z,12.18
2023-04-11T17:38:43.462Z,10.13
2023-04-11T17:41:14.883Z,10.40
2023-04-11T17:43:43.911Z,8.63
2023-04-11T17:46:12.466Z,7.93
2023-04-11T17:48:40.267Z,9.43
2023-04-11T17:51:08.040Z,8.23
2023-04-11T17:53:35.713Z,9.02
2023-04-11T17:56:05.522Z,9.25
2023-04-11T17:58:33.854Z,11.18
2023-04-11T18:01:03.854Z,7.93
2023-04-11T18:03:35.146Z,8.15
2023-04-11T18:06:03.437Z,7.68
2023-04-11T18:08:49.093Z,10.70
2023-04-11T18:11:17.872Z,10.75
2023-04-11T18:13:48.322Z,14.07
2023-04-11T18:16:17.975Z,6.50
2023-04-11T18:18:47.171Z,10.73
2023-04-11T18:21:16.185Z,8.40
2023-04-11T18:23:45.420Z,9.05
2023-04-11T18:26:13.246Z,9.02
2023-04-11T18:28:41.087Z,10.40
2023-04-11T18:31:10.694Z,8.18
2023-04-11T18:33:42.762Z,6.78
2023-04-11T18:36:26.472Z,10.18
2023-04-11T18:38:55.070Z,7.65
2023-04-11T18:41:23.013Z,8.18
2023-04-11T18:43:54.322Z,10.27
2023-04-11T18:46:22.519Z,7.78
2023-04-11T18:48:50.467Z,8.73
2023-04-11T18:51:19.483Z,9.00
2023-04-11T18:53:49.157Z,5.57
2023-04-11T18:56:17.219Z,5.85
2023-04-11T18:58:50.092Z,6.85
2023-04-11T19:01:21.289Z,7.60
2023-04-11T19:03:50.301Z,6.70
2023-04-11T19:06:19.600Z,6.60
2023-04-11T19:08:48.270Z,6.72
2023-04-11T19:11:16.311Z,6.28
2023-04-11T19:13:44.417Z,6.97
2023-04-11T19:16:15.454Z,5.45
2023-04-11T19:18:43.794Z,7.55
2023-04-11T19:21:12.578Z,6.80
2023-04-11T19:23:41.423Z,7.00
2023-04-11T19:26:10.219Z,6.53
2023-04-11T19:28:39.232Z,4.60
2023-04-11T19:31:07.487Z,6.62
2023-04-11T19:33:39.417Z,8.43
2023-04-11T19:36:12.524Z,5.60
2023-04-11T19:38:40.836Z,7.78
2023-04-11T19:41:11.690Z,8.40
2023-04-11T19:43:39.441Z,6.87
2023-04-11T19:46:07.767Z,6.32
2023-04-11T19:48:36.830Z,5.68
2023-04-11T19:51:06.905Z,5.93
2023-04-11T19:53:35.584Z,7.18
2023-04-11T19:56:04.636Z,15.25
2023-04-11T19:58:36.974Z,6.53
2023-04-11T20:01:07.006Z,6.70
2023-04-11T20:06:08.043Z,10.23
2023-04-11T20:08:47.525Z,8.68
2023-04-11T20:11:17.944Z,9.32
2023-04-11T20:13:46.882Z,9.60
2023-04-11T20:16:14.782Z,7.00
2023-04-11T20:18:42.727Z,7.53
2023-04-11T20:21:12.311Z,9.50
2023-04-11T20:23:41.122Z,10.50
2023-04-11T20:26:09.519Z,10.43
2023-04-11T20:28:38.138Z,7.78
2023-04-11T20:31:06.677Z,13.80
2023-04-11T20:33:34.198Z,9.30
2023-04-11T20:36:03.344Z,7.20
2023-04-11T20:38:31.378Z,11.57
2023-04-11T20:40:58.814Z,6.85
2023-04-11T20:43:26.778Z,7.47
2023-04-11T20:45:54.241Z,6.53
2023-04-11T20:48:21.775Z,8.32
2023-04-11T20:50:50.015Z,10.27
2023-04-11T20:53:17.557Z,5.90
2023-04-11T20:55:45.005Z,6.87
2023-04-11T20:58:17.051Z,7.78
2023-04-11T21:00:44.581Z,4.97
2023-04-11T21:03:12.445Z,6.85
2023-04-11T21:05:44.282Z,7.72
2023-04-11T21:08:12.057Z,5.68
2023-04-11T21:10:39.963Z,7.05
2023-04-11T21:13:07.401Z,5.90
2023-04-11T21:15:34.998Z,6.80
2023-04-11T21:18:04.869Z,7.53
2023-04-11T21:20:33.582Z,8.07
2023-04-11T21:23:02.689Z,8.20
2023-04-11T21:25:31.486Z,6.47
2023-04-11T21:27:58.986Z,6.10
2023-04-11T21:30:26.418Z,4.00
2023-04-11T21:32:54.207Z,6.45
2023-04-11T21:35:21.621Z,4.87
2023-04-11T21:37:49.319Z,5.57
2023-04-11T21:40:17.138Z,4.50
2023-04-11T21:42:44.608Z,6.62
2023-04-11T21:45:12.072Z,5.70
2023-04-11T21:47:40.010Z,4.97
2023-04-11T21:50:08.101Z,6.97
2023-04-11T21:52:35.550Z,5.72
2023-04-11T21:55:03.256Z,7.10
2023-04-11T21:57:33.863Z,5.40
2023-04-11T22:00:01.260Z,4.32
2023-04-11T22:02:39.346Z,6.18
2023-04-11T22:05:09.244Z,9.80
2023-04-11T22:07:49.033Z,5.10
2023-04-11T22:10:23.793Z,5.95
2023-04-11T22:12:53.976Z,5.70
2023-04-11T22:17:50.830Z,8.70
2023-04-11T22:20:20.015Z,3.65
2023-04-11T22:22:48.089Z,4.68
2023-04-11T22:25:18.146Z,9.02
2023-04-11T22:30:14.509Z,7.62
2023-04-11T22:32:42.048Z,5.53
2023-04-11T22:35:10.431Z,4.75
2023-04-11T22:37:38.158Z,6.50
2023-04-11T22:40:06.309Z,4.07
2023-04-11T22:42:33.858Z,6.95
2023-04-11T22:45:01.651Z,7.87
2023-04-11T22:47:29.181Z,6.32
2023-04-11T22:49:57.906Z,4.00
2023-04-11T22:52:25.896Z,8.88
2023-04-11T22:54:54.693Z,9.90
2023-04-11T22:57:22.166Z,5.30
2023-04-11T22:59:49.880Z,6.57
2023-04-11T23:02:17.455Z,3.47
2023-04-11T23:04:45.160Z,6.50
2023-04-11T23:07:12.960Z,8.15
2023-04-11T23:09:40.365Z,6.07
2023-04-11T23:12:08.348Z,4.57
2023-04-11T23:14:36.136Z,4.55
2023-04-11T23:17:03.542Z,4.10
2023-04-11T23:19:31.024Z,4.82
2023-04-11T23:21:59.485Z,5.75
2023-04-11T23:24:27.232Z,4.78
2023-04-11T23:26:54.675Z,5.45
2023-04-11T23:29:22.474Z,3.92
2023-04-11T23:31:49.853Z,5.50
2023-04-11T23:34:17.267Z,5.07
2023-04-11T23:36:45.004Z,3.72
2023-04-11T23:39:12.480Z,4.62
2023-04-11T23:41:39.970Z,5.80
2023-04-11T23:44:07.656Z,7.05
2023-04-11T23:46:35.183Z,7.55
2023-04-11T23:49:02.732Z,4.20
2023-04-11T23:51:30.426Z,7.22
2023-04-11T23:53:58.187Z,6.55
2023-04-11T23:56:26.253Z,7.70
2023-04-11T23:58:54.342Z,7.07
